KEND/END METAR and TAF weather

Enter ICAO airport designator
Station Type Date Time Source
KEND METAR 2022/12/04 03:55 UTC NOAA

KEND 040355Z AUTO 00000KT 10SM CLR 01/M06 A3038 RMK AO2 SLP302 T00061065 $


Station Type Date Time Source
KEND Decoded METAR 2022/12/04 03:55 UTC NOAA

Vance Air Force Base / Enid, OK, United States (KEND) 36-20N 097-55W
Dec 03, 2022 - 10:55 PM EST / 2022.12.04 0355 UTC
Wind: Calm:0
Visibility: 10 mile(s):0
Sky conditions: clear
Temperature: 33.1 F (0.6 C)
Dew Point: 20.3 F (-6.5 C)
Relative Humidity: 58%
Pressure (altimeter): 30.38 in. Hg (1028 hPa)
ob: KEND 040355Z AUTO 00000KT 10SM CLR 01/M06 A3038 RMK AO2 SLP302 T00061065
cycle: 4

Station Type Date Time Source
KEND TAF 2022/12/04 02:51 UTC NOAA

TAF TAF KEND 040200Z 0402/0508 VRB06KT 9999 OVC100 QNH3028INS
BECMG 0407/0408 15009KT 8000 BR OVC040 QNH3030INS
BECMG 0412/0413 16006KT 9999 NSW SCT007 OVC010 660001 QNH3025INS
BECMG 0418/0419 18008KT 9999 SCT050 BKN100 QNH3001INS TX06/0418Z TNM01/0409Z

Example: see airport list